Time;durP1;ratioP1;P1;durP2;ratioP2;P2;SDS_P1;SDS_P2;PMS_P1;PMS_P2;Temp;Humidity;BMP_temperature;BMP_pressure;BME280_temperature;BME280_humidity;BME280_pressure;Samples;Min_cycle;Max_cycle;Signal;HPM_P1;HPM_P2
2021/09/19 06:32:44;;;;;;;;;;;;;;;;;;;;;
2021/09/19 06:36:20;;;;;;;;;;;;;;;;;;;;;
2021/09/19 06:39:21;;;;;;;;;13.75;12.25;;;;;18.33;62.97;100789.03;4864228;29;69332;-86
2021/09/19 06:45:10;;;;;;;;;15.50;15.25;;;;;18.55;62.52;100810.50;4857943;29;45521;-84
2021/09/19 06:48:29;;;;;;;;;;;;;;;;;;;;;
2021/09/19 06:51:02;;;;;;;;;13.75;12.50;;;;;18.61;62.35;100807.63;4952188;28;67632;-85
2021/09/19 06:54:14;;;;;;;;;;;;;;;;;;;;;
2021/09/19 06:57:08;;;;;;;;;15.00;15.00;;;;;18.67;61.41;100815.38;4959632;28;74242;-85
2021/09/19 07:00:22;;;;;;;;;16.50;16.25;;;;;18.64;61.52;100815.50;4944900;28;45656;-85
2021/09/19 07:06:16;;;;;;;;;17.00;15.00;;;;;18.76;61.16;100830.22;4962456;28;45409;-85
2021/09/19 07:08:45;;;;;;;;;15.75;14.75;;;;;18.64;61.08;100811.97;4986456;28;45278;-85
2021/09/19 07:11:21;;;;;;;;;;;;;;;;;;;;;
2021/09/19 07:13:53;;;;;;;;;18.25;18.25;;;;;18.78;61.29;100839.03;4971940;28;68235;-85
2021/09/19 07:16:23;;;;;;;;;17.00;14.50;;;;;18.80;60.71;100830.97;4962079;28;45390;-85
2021/09/19 07:18:54;;;;;;;;;14.50;14.00;;;;;18.94;60.37;100855.34;4945922;28;48380;-85
2021/09/19 07:21:22;;;;;;;;;17.50;16.00;;;;;19.00;60.53;100851.59;4939409;28;45439;-85
2021/09/19 07:23:53;;;;;;;;;15.25;14.00;;;;;18.98;60.71;100843.66;4942426;28;45514;-85
2021/09/19 07:26:18;;;;;;;;;13.00;12.00;;;;;19.05;60.28;100838.94;4958987;28;45373;-83
2021/09/19 07:32:38;;;;;;;;;15.00;13.75;;;;;19.20;59.59;100862.41;4899276;28;45443;-85
2021/09/19 07:35:20;;;;;;;;;;;;;;;;;;;;;
2021/09/19 07:37:54;;;;;;;;;13.50;13.50;;;;;19.28;59.17;100862.97;4946241;28;72282;-84
2021/09/19 08:01:31;;;;;;;;;15.75;14.25;;;;;19.58;58.31;100879.59;5497811;23;46940;-82
2021/09/19 08:04:23;;;;;;;;;15.00;13.25;;;;;19.71;58.10;100911.22;4875204;29;46944;-83
2021/09/19 08:06:48;;;;;;;;;17.00;14.75;;;;;19.68;58.39;100889.97;4926148;28;45456;-81
2021/09/19 08:09:18;;;;;;;;;21.75;18.25;;;;;19.81;58.54;100908.13;4937611;28;45506;-82
2021/09/19 08:11:47;;;;;;;;;20.25;17.75;;;;;19.78;58.54;100892.22;4926232;28;45565;-82
2021/09/19 08:14:33;;;;;;;;;16.25;16.25;;;;;19.92;57.72;100906.84;4939840;28;46573;-83
2021/09/19 08:17:50;;;;;;;;;13.25;13.00;;;;;19.83;58.15;100892.91;4938637;28;45876;-83
2021/09/19 08:24:16;;;;;;;;;16.75;15.75;;;;;20.06;57.43;100893.78;4883026;28;45586;-83
2021/09/19 08:26:50;;;;;;;;;19.50;17.75;;;;;20.08;57.48;100893.72;4928472;28;47872;-82
2021/09/19 08:36:47;;;;;;;;;17.00;17.00;;;;;20.22;57.44;100916.28;4911337;28;45618;-82
2021/09/19 08:40:08;;;;;;;;;16.50;16.50;;;;;20.30;56.98;100925.78;4909222;28;47466;-83
2021/09/19 08:43:19;;;;;;;;;;;;;;;;;;;;;
2021/09/19 08:46:26;;;;;;;;;18.25;16.00;;;;;20.37;57.13;100932.59;4807711;29;69385;-82
2021/09/19 08:52:31;;;;;;;;;14.75;14.75;;;;;20.42;56.34;100933.28;4778122;29;46879;-83
2021/09/19 08:55:40;;;;;;;;;14.50;14.50;;;;;20.51;56.44;100946.31;4806937;29;45626;-83
2021/09/19 08:58:47;;;;;;;;;;;;;;;;;;;;;
2021/09/19 09:02:02;;;;;;;;;;;;;;;;;;;;;
2021/09/19 09:04:56;;;;;;;;;18.00;15.00;;;;;20.59;56.48;100940.66;4898529;29;75820;-83
2021/09/19 09:08:14;;;;;;;;;19.00;17.00;;;;;20.85;56.10;100953.81;4889691;29;45616;-82
2021/09/19 09:14:49;;;;;;;;;14.75;14.00;;;;;21.02;55.02;100962.91;4900196;28;44986;-82
2021/09/19 09:17:34;;;;;;;;;14.25;13.75;;;;;21.00;55.10;100948.72;4946464;28;45557;-82
2021/09/19 09:20:03;;;;;;;;;16.50;15.00;;;;;21.14;54.73;100967.69;4958262;28;44766;-83
2021/09/19 09:22:39;;;;;;;;;15.25;14.00;;;;;21.09;54.59;100962.56;4946294;28;45308;-83
2021/09/19 09:32:40;;;;;;;;;13.25;13.00;;;;;21.14;53.73;100957.88;4935509;28;45396;-84
2021/09/19 09:36:04;;;;;;;;;11.00;11.00;;;;;21.24;53.87;100961.00;4931501;28;45240;-83
2021/09/19 09:38:55;;;;;;;;;13.25;12.50;;;;;21.30;53.36;100957.19;4905170;29;45708;-83
2021/09/19 09:41:48;;;;;;;;;12.75;12.75;;;;;21.40;53.23;100969.25;4842732;29;46853;-83
2021/09/19 09:44:27;;;;;;;;;14.50;14.00;;;;;21.44;53.53;100960.16;4954125;28;45406;-83
2021/09/19 09:47:14;;;;;;;;;15.25;13.75;;;;;21.53;53.32;100965.09;4954043;28;45610;-82
2021/09/19 09:50:10;;;;;;;;;18.75;18.50;;;;;21.58;53.13;100956.84;4928960;28;45561;-82
2021/09/19 09:56:00;;;;;;;;;13.00;13.00;;;;;21.68;52.93;100970.66;4936763;28;45446;-83
2021/09/19 09:59:08;;;;;;;;;16.00;15.00;;;;;21.73;52.86;100971.31;4942382;28;45402;-83
2021/09/19 10:09:03;;;;;;;;;15.00;15.00;;;;;21.82;52.85;100980.78;4877864;29;45597;-86
2021/09/19 10:15:34;;;;;;;;;15.25;15.25;;;;;22.04;52.51;100986.84;4827176;29;45596;-85
2021/09/19 10:18:05;;;;;;;;;14.50;14.25;;;;;22.08;52.00;100980.41;4870240;28;46390;-82
2021/09/19 10:20:53;;;;;;;;;16.25;14.25;;;;;22.22;52.03;100983.31;4933898;28;45466;-84
2021/09/19 10:27:37;;;;;;;;;14.00;12.75;;;;;22.41;51.67;100980.59;4932323;28;45466;-86
2021/09/19 10:30:13;;;;;;;;;13.50;13.50;;;;;22.58;51.25;100981.56;4934267;28;46247;-84
2021/09/19 10:47:11;;;;;;;;;41.25;34.50;;;;;23.02;50.41;100983.84;4892636;29;44825;-87
2021/09/19 11:53:38;;;;;;;;;13.00;13.00;;;;;26.26;42.09;101006.28;4925371;28;46606;-91
2021/09/19 12:03:19;;;;;;;;;14.50;13.00;;;;;27.05;41.48;101005.50;4863197;29;45335;-90
2021/09/19 12:21:49;;;;;;;;;;;;;;;;;;;;;
2021/09/19 12:43:15;;;;;;;;;;;;;;;;;;;;;
2021/09/19 12:46:48;;;;;;;;;13.00;13.00;;;;;26.91;38.76;100983.97;4700674;30;71108;-85
2021/09/19 12:50:07;;;;;;;;;12.00;12.00;;;;;26.82;39.43;100985.47;4720297;30;45708;-84
2021/09/19 13:06:52;;;;;;;;;14.00;14.00;;;;;26.97;39.16;100982.66;4752544;29;45725;-83
2021/09/19 13:09:21;;;;;;;;;12.50;11.50;;;;;27.13;39.28;100987.88;4756040;29;45630;-85
2021/09/19 13:11:50;;;;;;;;;13.50;12.50;;;;;27.49;38.95;100987.19;4796332;28;45722;-84
2021/09/19 13:14:27;;;;;;;;;15.00;13.75;;;;;27.84;37.92;100987.38;4920878;28;47328;-84
2021/09/19 13:16:54;;;;;;;;;12.00;11.00;;;;;28.00;37.85;100988.97;4940367;28;45366;-84
2021/09/19 13:19:25;;;;;;;;;13.00;13.00;;;;;28.04;38.53;100991.38;4955759;28;44767;-85
2021/09/19 13:22:24;;;;;;;;;;;;;;;;;;;;;
2021/09/19 13:25:03;;;;;;;;;11.75;11.75;;;;;27.99;37.60;100992.66;4938132;28;74896;-84
2021/09/19 13:27:57;;;;;;;;;15.25;14.00;;;;;28.06;37.34;100986.69;4939615;28;45494;-83
2021/09/19 13:30:23;;;;;;;;;14.75;14.75;;;;;27.89;37.88;100976.22;4942706;28;45416;-84
2021/09/19 13:32:49;;;;;;;;;14.00;13.50;;;;;27.62;37.67;100981.78;4940754;28;45517;-83
2021/09/19 13:35:25;;;;;;;;;;;;;;;;;;;;;
2021/09/19 13:37:53;;;;;;;;;14.00;13.00;;;;;27.35;38.47;100982.75;4940586;28;71576;-84
2021/09/19 13:40:22;;;;;;;;;10.75;10.75;;;;;28.44;38.44;100984.84;4939877;28;45595;-84
2021/09/19 13:42:47;;;;;;;;;13.50;13.50;;;;;30.13;36.16;100999.66;4949745;28;45469;-85
2021/09/19 13:45:19;;;;;;;;;13.25;13.25;;;;;31.88;34.51;100990.13;4942093;28;45430;-85
2021/09/19 13:47:45;;;;;;;;;14.00;13.50;;;;;33.43;32.80;100991.28;4940779;28;45423;-85
2021/09/19 13:50:11;;;;;;;;;11.00;11.00;;;;;34.87;31.21;100998.84;4928870;28;45307;-83
2021/09/19 13:52:36;;;;;;;;;11.25;11.25;;;;;36.33;29.96;100992.56;4939825;28;45680;-84
2021/09/19 13:55:08;;;;;;;;;14.50;13.50;;;;;38.00;26.60;101008.59;4940674;28;46815;-85
2021/09/19 13:57:34;;;;;;;;;11.00;11.00;;;;;39.19;25.96;100995.41;4940476;28;45493;-85
2021/09/19 14:06:51;;;;;;;;;12.00;12.00;;;;;39.38;22.06;100999.56;4829436;29;45785;-86
2021/09/19 14:29:00;;;;;;;;;10.00;10.00;;;;;32.02;28.40;100995.25;4812253;29;45472;-83
2021/09/19 14:31:26;;;;;;;;;11.00;11.00;;;;;31.23;29.26;100999.53;4832255;29;48281;-83
2021/09/19 14:33:52;;;;;;;;;11.25;10.75;;;;;30.50;30.35;101000.22;4858014;29;45792;-81
2021/09/19 14:36:18;;;;;;;;;11.25;11.25;;;;;30.03;31.23;100993.25;4918322;28;46079;-81
2021/09/19 14:38:44;;;;;;;;;12.50;11.50;;;;;29.74;31.90;100999.19;4902264;28;45415;-81
2021/09/19 14:41:10;;;;;;;;;10.25;10.00;;;;;29.40;32.18;100996.44;4925223;28;46058;-81
2021/09/19 14:43:38;;;;;;;;;9.75;9.75;;;;;29.08;32.67;100992.66;4905407;28;45460;-81
2021/09/19 14:46:09;;;;;;;;;10.75;9.50;;;;;28.80;33.33;100998.31;4920017;28;45703;-81
2021/09/19 14:48:35;;;;;;;;;9.25;9.25;;;;;28.67;33.67;100996.66;4918724;28;45497;-80
2021/09/19 14:51:00;;;;;;;;;12.25;12.25;;;;;28.43;34.14;100985.81;4919915;28;45787;-81
2021/09/19 14:53:26;;;;;;;;;11.00;9.67;;;;;28.29;34.06;100982.28;4903007;28;45455;-81
2021/09/19 14:55:52;;;;;;;;;9.50;9.50;;;;;28.08;34.21;101000.97;4903343;28;45376;-80
2021/09/19 14:58:17;;;;;;;;;7.75;7.75;;;;;27.86;34.46;100995.41;4922851;28;45748;-81
2021/09/19 15:00:43;;;;;;;;;10.25;10.25;;;;;27.74;34.78;100996.25;4920063;28;46199;-81
2021/09/19 15:03:18;;;;;;;;;13.00;10.50;;;;;27.60;35.29;100997.25;4925324;28;45768;-80
2021/09/19 15:05:43;;;;;;;;;10.00;9.75;;;;;27.40;35.73;100982.41;4920797;28;45370;-82
2021/09/19 15:08:11;;;;;;;;;12.00;11.25;;;;;27.32;35.68;100991.09;4901876;28;45568;-81
2021/09/19 15:10:37;;;;;;;;;12.67;12.67;;;;;27.19;36.10;100993.78;4913352;28;46586;-81
2021/09/19 15:13:02;;;;;;;;;11.25;11.25;;;;;27.06;37.01;100982.06;4902446;28;46623;-81
2021/09/19 15:15:28;;;;;;;;;10.67;9.00;;;;;27.08;36.61;100972.00;4912074;28;45493;-80
2021/09/19 15:17:53;;;;;;;;;11.75;10.25;;;;;27.29;36.82;100983.16;4921188;28;45820;-81
2021/09/19 15:20:19;;;;;;;;;11.33;11.33;;;;;27.60;36.66;100979.16;4919888;28;46493;-80
2021/09/19 15:22:44;;;;;;;;;10.67;9.33;;;;;27.86;35.94;100980.03;4937502;28;45476;-81
2021/09/19 15:25:11;;;;;;;;;10.67;10.00;;;;;28.20;35.53;100984.78;4937883;28;45504;-80
2021/09/19 15:27:39;;;;;;;;;10.00;10.00;;;;;28.26;35.35;100981.66;4935966;28;45498;-80
2021/09/19 15:30:05;;;;;;;;;8.75;8.75;;;;;28.15;35.47;100986.00;4937935;28;45530;-80
2021/09/19 15:32:30;;;;;;;;;11.75;11.25;;;;;28.05;35.84;100981.41;4937227;28;45883;-81
2021/09/19 15:34:56;;;;;;;;;13.00;11.75;;;;;27.98;36.18;100990.94;4936747;28;45590;-80
2021/09/19 15:37:22;;;;;;;;;13.00;11.50;;;;;27.77;35.35;100996.03;4936968;28;45808;-81
2021/09/19 15:39:47;;;;;;;;;10.50;10.50;;;;;27.50;35.87;100991.59;4936598;28;47478;-80
2021/09/19 15:42:13;;;;;;;;;10.50;9.50;;;;;27.28;36.17;100998.53;4936787;28;45529;-80
2021/09/19 15:44:38;;;;;;;;;8.75;8.00;;;;;27.04;35.50;100998.34;4940858;28;45704;-81
2021/09/19 15:47:04;;;;;;;;;10.00;10.00;;;;;26.83;35.70;101010.63;4938005;28;45546;-80
2021/09/19 15:49:31;;;;;;;;;8.33;8.33;;;;;26.68;36.28;101001.75;4936921;28;46402;-80
2021/09/19 15:51:57;;;;;;;;;9.00;9.00;;;;;26.67;36.61;101004.53;4938163;28;45688;-80
2021/09/19 15:54:22;;;;;;;;;11.33;11.33;;;;;26.57;35.82;101004.28;4945797;28;45652;-81
2021/09/19 15:56:48;;;;;;;;;10.25;10.25;;;;;26.96;36.22;101008.84;4938278;28;45489;-81
2021/09/19 15:59:13;;;;;;;;;9.33;9.33;;;;;27.91;35.46;101002.22;4936326;28;47525;-80
2021/09/19 16:01:41;;;;;;;;;11.75;10.75;;;;;28.27;34.57;101002.31;4941844;28;45707;-81
2021/09/19 16:04:07;;;;;;;;;9.67;9.67;;;;;28.15;34.23;101004.09;4938156;28;45533;-80
2021/09/19 16:06:32;;;;;;;;;10.00;9.00;;;;;27.90;33.90;101007.72;4936311;28;45468;-80
2021/09/19 16:08:58;;;;;;;;;10.67;7.67;;;;;27.57;34.09;101008.28;4935471;28;47652;-80
2021/09/19 16:11:24;;;;;;;;;9.33;9.33;;;;;27.19;34.11;101018.09;4935181;28;45391;-81
2021/09/19 16:13:49;;;;;;;;;10.00;9.00;;;;;26.81;35.32;101012.56;4935900;28;45494;-81
2021/09/19 16:16:15;;;;;;;;;11.50;10.75;;;;;26.52;36.34;101015.41;4940667;28;45427;-83
2021/09/19 16:18:41;;;;;;;;;8.00;8.00;;;;;26.25;36.61;101025.25;4941296;28;47062;-82
2021/09/19 16:21:08;;;;;;;;;9.33;9.00;;;;;26.04;37.63;101033.81;4940570;28;45462;-81
2021/09/19 16:23:44;;;;;;;;;;;;;;;;;;;;;
2021/09/19 16:26:09;;;;;;;;;11.00;9.67;;;;;25.69;38.88;101025.22;4942796;28;70232;-82
2021/09/19 16:28:37;;;;;;;;;11.50;10.50;;;;;25.61;39.15;101024.78;4941625;28;45918;-83
2021/09/19 16:31:03;;;;;;;;;12.75;12.25;;;;;25.55;39.08;101027.88;4939754;28;45484;-84
2021/09/19 16:33:28;;;;;;;;;10.67;10.67;;;;;25.45;39.01;101033.84;4942116;28;45538;-83
2021/09/19 16:35:55;;;;;;;;;9.50;9.50;;;;;25.32;39.64;101021.22;4942719;28;45363;-81
2021/09/19 16:39:23;;;;;;;;;10.75;10.00;;;;;25.24;40.05;101032.47;4943292;28;46346;-84
2021/09/19 16:42:44;;;;;;;;;9.50;9.50;;;;;25.21;39.84;101032.66;4918825;28;45624;-85
2021/09/19 16:45:22;;;;;;;;;12.25;11.00;;;;;25.06;40.19;101037.97;4917425;28;46423;-83
2021/09/19 16:47:54;;;;;;;;;8.25;7.25;;;;;24.93;39.94;101041.47;4943365;28;45290;-84
2021/09/19 16:50:23;;;;;;;;;10.50;10.50;;;;;24.86;40.34;101062.53;4941367;28;46377;-83
2021/09/19 16:53:49;;;;;;;;;;;;;;;;;;;;;
2021/09/19 17:07:06;;;;;;;;;16.50;15.50;;;;;23.89;47.74;101107.41;4771773;29;45362;-84
2021/09/19 17:13:21;;;;;;;;;14.50;14.00;;;;;23.59;48.25;101116.09;4783532;29;45365;-83
2021/09/19 17:15:47;;;;;;;;;13.25;13.00;;;;;23.45;48.73;101107.91;4829092;29;46873;-84
2021/09/19 17:18:12;;;;;;;;;16.50;13.00;;;;;23.29;49.72;101111.38;4886560;29;45952;-83
2021/09/19 17:28:22;;;;;;;;;18.00;18.00;;;;;22.71;52.17;101135.69;4815649;29;46359;-88
2021/09/19 17:31:20;;;;;;;;;20.00;20.00;;;;;22.57;53.48;101139.03;4813783;29;45496;-83
2021/09/19 17:34:11;;;;;;;;;17.25;16.50;;;;;22.50;54.60;101145.63;4816480;29;45627;-83
2021/09/19 17:36:42;;;;;;;;;20.75;19.50;;;;;22.38;54.26;101144.41;4811437;29;45537;-84
2021/09/19 17:39:21;;;;;;;;;17.25;16.75;;;;;22.22;55.61;101129.97;4819106;29;47644;-85
2021/09/19 17:53:04;;;;;;;;;13.25;12.50;;;;;21.92;56.26;101151.84;4755672;29;45661;-86
2021/09/19 17:55:28;;;;;;;;;18.75;16.50;;;;;21.82;56.40;101147.81;4752319;29;45423;-84
2021/09/19 17:57:56;;;;;;;;;18.75;15.00;;;;;21.81;56.96;101154.09;4835463;29;45507;-85
2021/09/19 18:00:23;;;;;;;;;17.50;16.25;;;;;21.74;56.98;101160.69;4936773;28;45489;-85
2021/09/19 18:02:51;;;;;;;;;18.50;18.50;;;;;21.66;57.20;101162.84;4946747;28;46297;-86
2021/09/19 18:05:17;;;;;;;;;18.00;17.25;;;;;21.59;57.32;101162.22;4945868;28;45323;-85
2021/09/19 18:07:43;;;;;;;;;19.25;19.00;;;;;21.58;57.28;101171.19;4943383;28;45416;-84
2021/09/19 18:10:11;;;;;;;;;17.50;15.00;;;;;21.46;57.39;101164.53;4943630;28;45544;-83
2021/09/19 18:12:36;;;;;;;;;17.75;15.25;;;;;21.44;57.41;101173.56;4943565;28;45441;-85
2021/09/19 18:15:08;;;;;;;;;13.50;13.50;;;;;21.35;56.99;101167.63;4943760;28;45378;-85
2021/09/19 18:17:34;;;;;;;;;18.25;16.50;;;;;21.30;56.95;101182.16;4941754;28;46718;-85
2021/09/19 18:20:26;;;;;;;;;16.50;15.00;;;;;21.19;56.71;101169.19;4942765;28;45499;-85
2021/09/19 18:22:51;;;;;;;;;14.00;12.25;;;;;21.13;56.61;101183.72;4928557;28;45312;-84
2021/09/19 18:25:17;;;;;;;;;13.25;13.25;;;;;21.01;57.30;101189.59;4936334;28;45314;-84
2021/09/19 18:27:44;;;;;;;;;10.75;10.75;;;;;20.95;56.92;101205.00;4941102;28;45410;-84
2021/09/19 18:30:17;;;;;;;;;12.25;10.75;;;;;20.82;57.09;101196.56;4940356;28;45440;-84
2021/09/19 18:32:42;;;;;;;;;10.00;10.00;;;;;20.72;57.40;101201.44;4944675;28;46212;-82
2021/09/19 18:35:08;;;;;;;;;15.00;13.50;;;;;20.59;57.65;101206.38;4940281;28;45306;-83
2021/09/19 18:37:34;;;;;;;;;10.33;10.33;;;;;20.53;58.24;101205.69;4938053;28;45495;-83
2021/09/19 18:40:05;;;;;;;;;9.67;9.67;;;;;20.48;57.77;101214.78;4954732;28;45503;-85
2021/09/19 18:42:31;;;;;;;;;12.25;12.25;;;;;20.42;58.68;101215.00;4943607;28;47753;-80
2021/09/19 18:44:57;;;;;;;;;11.00;11.00;;;;;20.38;58.15;101226.75;4946583;28;45339;-81
2021/09/19 18:47:22;;;;;;;;;16.00;14.50;;;;;20.23;59.16;101209.47;4940826;28;45493;-81
2021/09/19 18:49:48;;;;;;;;;15.75;15.00;;;;;20.28;59.24;101219.97;4942715;28;45526;-81
2021/09/19 18:52:13;;;;;;;;;13.00;12.00;;;;;20.19;60.61;101205.16;4944652;28;47544;-80
2021/09/19 18:54:41;;;;;;;;;14.25;13.00;;;;;20.18;59.99;101219.47;4956170;28;44816;-79
2021/09/19 19:18:49;;;;;;;;;;;;;;;;;;;;;
2021/09/19 21:02:29;;;;;;;;;2.67;2.67;;;;;18.94;63.01;101324.97;6062758;23;45534;-81
2021/09/19 21:05:06;;;;;;;;;;;;;;;;;;;;;
2021/09/19 21:08:22;;;;;;;;;3.00;2.67;;;;;19.00;63.97;101348.78;6178363;22;73256;-81
2021/09/19 23:34:37;;;;;;;;;;;;;;;;;;;;;
